createdAt,value
2022-12-29T00:01:46.001Z,96549.31
2022-12-29T00:04:15.568Z,96552.00
2022-12-29T00:06:43.886Z,96547.63
2022-12-29T00:09:12.346Z,96542.88
2022-12-29T00:11:38.681Z,96541.50
2022-12-29T00:14:26.345Z,96533.81
2022-12-29T00:16:52.834Z,96533.41
2022-12-29T00:19:37.977Z,96536.53
2022-12-29T00:22:22.857Z,96533.28
2022-12-29T00:25:01.223Z,96536.81
2022-12-29T00:27:46.856Z,96529.19
2022-12-29T00:30:32.734Z,96539.16
2022-12-29T00:33:17.847Z,96526.16
2022-12-29T00:35:53.318Z,96520.16
2022-12-29T00:38:38.888Z,96530.28
2022-12-29T00:41:24.186Z,96523.97
2022-12-29T00:44:11.026Z,96522.47
2022-12-29T00:46:39.102Z,96525.47
2022-12-29T00:49:28.432Z,96517.72
2022-12-29T00:51:55.146Z,96519.34
2022-12-29T00:54:36.191Z,96519.91
2022-12-29T00:57:04.757Z,96524.28
2022-12-29T00:59:31.158Z,96518.09
2022-12-29T01:01:59.717Z,96525.22
2022-12-29T01:04:27.198Z,96521.53
2022-12-29T01:06:54.598Z,96519.22
2022-12-29T01:09:39.771Z,96524.00
2022-12-29T01:12:13.047Z,96520.03
2022-12-29T01:14:40.509Z,96524.28
2022-12-29T01:17:07.177Z,96511.38
2022-12-29T01:19:33.853Z,96511.94
2022-12-29T01:22:00.547Z,96509.47
2022-12-29T01:24:28.072Z,96509.75
2022-12-29T01:26:55.547Z,96503.59
2022-12-29T01:29:22.258Z,96499.88
2022-12-29T01:31:50.580Z,96502.09
2022-12-29T01:34:19.219Z,96497.28
2022-12-29T01:36:45.566Z,96505.06
2022-12-29T01:39:12.062Z,96498.25
2022-12-29T01:41:38.546Z,96494.13
2022-12-29T01:44:24.840Z,96504.28
2022-12-29T01:46:51.933Z,96494.44
2022-12-29T01:49:20.219Z,96496.19
2022-12-29T01:51:58.993Z,96500.31
2022-12-29T01:54:31.355Z,96493.59
2022-12-29T01:56:59.406Z,96481.81
2022-12-29T01:59:49.705Z,96478.53
2022-12-29T02:02:19.145Z,96470.91
2022-12-29T02:04:45.676Z,96474.16
2022-12-29T02:07:16.214Z,96466.34
2022-12-29T02:09:47.585Z,96469.47
2022-12-29T02:12:14.155Z,96462.66
2022-12-29T02:14:40.565Z,96463.47
2022-12-29T02:17:12.500Z,96459.47
2022-12-29T02:19:57.943Z,96442.22
2022-12-29T02:22:27.112Z,96437.75
2022-12-29T02:25:01.746Z,96442.63
2022-12-29T02:27:34.280Z,96445.88
2022-12-29T02:30:16.493Z,96450.94
2022-12-29T02:32:47.893Z,96444.94
2022-12-29T02:35:24.747Z,96448.03
2022-12-29T02:38:00.458Z,96451.03
2022-12-29T02:40:46.113Z,96452.38
2022-12-29T02:43:32.337Z,96448.69
2022-12-29T02:46:10.239Z,96454.91
2022-12-29T02:48:44.123Z,96454.75
2022-12-29T02:51:13.785Z,96449.94
2022-12-29T02:53:58.887Z,96448.91
2022-12-29T02:56:28.475Z,96444.22
2022-12-29T02:58:54.986Z,96446.94
2022-12-29T03:01:30.603Z,96443.69
2022-12-29T03:04:03.027Z,96445.31
2022-12-29T03:06:39.040Z,96444.25
2022-12-29T03:09:18.982Z,96441.38
2022-12-29T03:12:09.392Z,96448.66
2022-12-29T03:15:14.428Z,96445.72
2022-12-29T03:17:54.817Z,96444.16
2022-12-29T03:20:27.535Z,96441.41
2022-12-29T03:23:01.425Z,96442.81
2022-12-29T03:25:34.482Z,96443.53
2022-12-29T03:28:07.933Z,96429.91
2022-12-29T03:30:35.339Z,96425.75
2022-12-29T03:33:04.429Z,96427.59
2022-12-29T03:35:34.043Z,96423.59
2022-12-29T03:38:03.679Z,96422.78
2022-12-29T03:40:32.008Z,96420.75
2022-12-29T03:42:59.196Z,96420.28
2022-12-29T03:45:25.592Z,96420.28
2022-12-29T03:47:53.147Z,96428.88
2022-12-29T03:50:19.496Z,96419.97
2022-12-29T03:52:51.911Z,96421.06
2022-12-29T03:55:18.404Z,96421.44
2022-12-29T03:57:45.969Z,96429.03
2022-12-29T04:00:12.701Z,96425.25
2022-12-29T04:02:39.189Z,96423.19
2022-12-29T04:05:06.003Z,96424.06
2022-12-29T04:07:32.395Z,96422.28
2022-12-29T04:09:58.752Z,96423.69
2022-12-29T04:12:33.061Z,96420.28
2022-12-29T04:14:59.410Z,96414.75
2022-12-29T04:17:25.825Z,96416.16
2022-12-29T04:20:19.050Z,96420.69
2022-12-29T04:22:45.437Z,96419.59
2022-12-29T04:25:11.887Z,96417.47
2022-12-29T04:27:40.357Z,96424.13
2022-12-29T04:30:07.006Z,96415.81
2022-12-29T04:32:33.852Z,96416.41
2022-12-29T04:35:00.911Z,96425.91
2022-12-29T04:37:27.238Z,96420.69
2022-12-29T04:39:53.574Z,96418.34
2022-12-29T04:42:20.954Z,96412.25
2022-12-29T04:44:47.251Z,96414.47
2022-12-29T04:47:13.600Z,96419.09
2022-12-29T04:49:40.028Z,96417.47
2022-12-29T04:52:06.427Z,96417.22
2022-12-29T04:54:32.781Z,96414.47
2022-12-29T04:57:05.161Z,96407.50
2022-12-29T04:59:31.494Z,96409.03
2022-12-29T05:01:58.008Z,96410.63
2022-12-29T05:04:24.456Z,96411.63
2022-12-29T05:06:50.921Z,96413.38
2022-12-29T05:09:17.251Z,96415.13
2022-12-29T05:11:44.901Z,96410.16
2022-12-29T05:14:13.303Z,96401.00
2022-12-29T05:16:42.014Z,96403.97
2022-12-29T05:19:08.411Z,96407.13
2022-12-29T05:21:34.734Z,96404.97
2022-12-29T05:24:01.066Z,96399.56
2022-12-29T05:26:27.765Z,96408.03
2022-12-29T05:28:54.155Z,96400.31
2022-12-29T05:31:20.558Z,96395.47
2022-12-29T05:33:48.959Z,96395.75
2022-12-29T05:36:15.502Z,96403.41
2022-12-29T05:38:41.913Z,96399.34
2022-12-29T05:41:16.459Z,96405.88
2022-12-29T05:43:42.902Z,96388.53
2022-12-29T05:46:09.270Z,96404.69
2022-12-29T05:48:44.533Z,96393.44
2022-12-29T05:51:10.892Z,96404.22
2022-12-29T05:53:37.556Z,96402.03
2022-12-29T05:56:03.965Z,96403.03
2022-12-29T05:58:33.385Z,96408.53
2022-12-29T06:00:59.988Z,96416.13
2022-12-29T06:03:27.457Z,96405.50
2022-12-29T06:05:55.320Z,96403.72
2022-12-29T06:08:21.869Z,96407.88
2022-12-29T06:10:48.485Z,96404.63
2022-12-29T06:13:15.229Z,96408.75
2022-12-29T06:15:41.607Z,96403.28
2022-12-29T06:18:08.620Z,96389.66
2022-12-29T06:20:35.172Z,96381.19
2022-12-29T06:23:01.593Z,96377.38
2022-12-29T06:25:27.932Z,96381.78
2022-12-29T06:28:06.201Z,96378.88
2022-12-29T06:30:33.120Z,96389.44
2022-12-29T06:33:09.267Z,96382.22
2022-12-29T06:35:35.607Z,96388.69
2022-12-29T06:38:04.241Z,96394.63
2022-12-29T06:40:30.763Z,96408.53
2022-12-29T06:42:57.102Z,96407.66
2022-12-29T06:45:23.426Z,96399.53
2022-12-29T06:47:49.743Z,96401.88
2022-12-29T06:50:16.174Z,96397.06
2022-12-29T06:52:42.511Z,96393.19
2022-12-29T06:55:09.004Z,96387.22
2022-12-29T06:57:35.314Z,96398.06
2022-12-29T07:00:01.730Z,96387.97
2022-12-29T07:02:28.166Z,96378.50
2022-12-29T07:04:55.667Z,96380.88
2022-12-29T07:07:21.990Z,96380.97
2022-12-29T07:09:48.319Z,96389.13
2022-12-29T07:12:14.799Z,96394.56
2022-12-29T07:14:49.779Z,96395.81
2022-12-29T07:17:16.192Z,96381.84
2022-12-29T07:19:42.841Z,96387.34
2022-12-29T07:22:10.311Z,96392.22
2022-12-29T07:24:36.676Z,96387.28
2022-12-29T07:27:03.017Z,96386.41
2022-12-29T07:29:29.368Z,96400.91
2022-12-29T07:31:58.918Z,96393.16
2022-12-29T07:34:25.262Z,96399.66
2022-12-29T07:36:51.577Z,96397.22
2022-12-29T07:39:17.909Z,96407.44
2022-12-29T07:41:44.235Z,96400.47
2022-12-29T07:44:10.903Z,96386.84
2022-12-29T07:46:54.666Z,96393.50
2022-12-29T07:49:23.673Z,96407.56
2022-12-29T07:51:50.065Z,96410.00
2022-12-29T07:54:19.121Z,96416.00
2022-12-29T07:56:46.781Z,96422.91
2022-12-29T07:59:14.596Z,96426.31
2022-12-29T08:01:45.037Z,96431.31
2022-12-29T08:04:11.572Z,96441.97
2022-12-29T08:06:38.823Z,96444.63
2022-12-29T08:09:13.414Z,96444.03
2022-12-29T08:11:45.401Z,96436.63
2022-12-29T08:14:17.661Z,96456.75
2022-12-29T08:16:43.985Z,96451.34
2022-12-29T08:19:11.456Z,96456.41
2022-12-29T08:21:37.794Z,96448.59
2022-12-29T08:24:04.266Z,96449.19
2022-12-29T08:26:30.659Z,96452.81
2022-12-29T08:28:59.049Z,96456.00
2022-12-29T08:31:25.528Z,96450.38
2022-12-29T08:33:52.367Z,96451.34
2022-12-29T08:36:19.925Z,96449.53
2022-12-29T08:38:46.381Z,96447.06
2022-12-29T08:41:13.809Z,96444.66
2022-12-29T08:43:40.171Z,96440.75
2022-12-29T08:46:06.576Z,96433.31
2022-12-29T08:48:32.974Z,96429.53
2022-12-29T08:50:59.323Z,96438.09
2022-12-29T08:53:25.651Z,96434.47
2022-12-29T08:56:04.984Z,96443.03
2022-12-29T08:58:38.892Z,96446.31
2022-12-29T09:01:10.340Z,96445.03
2022-12-29T09:04:12.920Z,96448.84
2022-12-29T09:06:25.204Z,96448.91
2022-12-29T09:08:57.349Z,96450.03
2022-12-29T09:11:25.010Z,96448.28
2022-12-29T09:13:51.732Z,96440.34
2022-12-29T09:16:18.639Z,96448.22
2022-12-29T09:18:45.714Z,96448.72
2022-12-29T09:21:17.223Z,96453.50
2022-12-29T09:23:52.675Z,96449.03
2022-12-29T09:26:19.392Z,96452.38
2022-12-29T09:28:45.793Z,96460.25
2022-12-29T09:31:12.802Z,96459.63
2022-12-29T09:33:49.305Z,96454.84
2022-12-29T09:36:16.693Z,96445.91
2022-12-29T09:38:43.217Z,96448.19
2022-12-29T09:41:22.361Z,96447.94
2022-12-29T09:43:54.594Z,96441.25
2022-12-29T09:46:21.022Z,96446.16
2022-12-29T09:48:55.640Z,96427.28
2022-12-29T09:51:24.596Z,96428.38
2022-12-29T09:53:54.552Z,96427.91
2022-12-29T09:56:22.995Z,96424.28
2022-12-29T09:58:57.797Z,96415.22
2022-12-29T10:01:40.522Z,96416.81
2022-12-29T10:04:06.953Z,96417.69
2022-12-29T10:06:33.343Z,96417.31
2022-12-29T10:09:02.919Z,96409.69
2022-12-29T10:11:52.111Z,96408.53
2022-12-29T10:14:33.861Z,96402.84
2022-12-29T10:17:22.837Z,96398.91
2022-12-29T10:19:53.310Z,96394.84
2022-12-29T10:22:41.919Z,96387.19
2022-12-29T10:25:19.958Z,96387.63
2022-12-29T10:27:50.300Z,96382.09
2022-12-29T10:30:17.172Z,96393.41
2022-12-29T10:32:50.646Z,96378.69
2022-12-29T10:35:21.385Z,96377.75
2022-12-29T10:38:06.007Z,96381.50
2022-12-29T10:40:38.494Z,96372.03
2022-12-29T10:43:18.179Z,96379.00
2022-12-29T10:45:48.395Z,96374.25
2022-12-29T10:48:31.975Z,96372.53
2022-12-29T10:51:01.902Z,96378.44
2022-12-29T10:53:35.802Z,96377.69
2022-12-29T10:56:03.061Z,96379.44
2022-12-29T10:58:30.364Z,96382.13
2022-12-29T11:00:56.806Z,96381.53
2022-12-29T11:03:36.832Z,96377.94
2022-12-29T11:06:38.857Z,96379.25
2022-12-29T11:09:09.798Z,96371.41
2022-12-29T11:11:39.154Z,96377.63
2022-12-29T11:14:22.460Z,96371.06
2022-12-29T11:17:02.204Z,96361.69
2022-12-29T11:19:30.132Z,96367.22
2022-12-29T11:22:18.974Z,96355.81
2022-12-29T11:24:48.375Z,96351.38
2022-12-29T11:27:16.477Z,96347.13
2022-12-29T11:29:43.429Z,96344.09
2022-12-29T11:32:14.520Z,96331.53
2022-12-29T11:34:46.334Z,96337.16
2022-12-29T11:37:20.610Z,96323.59
2022-12-29T11:39:54.179Z,96321.84
2022-12-29T11:42:40.261Z,96325.44
2022-12-29T11:45:27.060Z,96327.19
2022-12-29T11:47:56.966Z,96310.31
2022-12-29T11:50:36.809Z,96316.69
2022-12-29T11:53:18.151Z,96313.78
2022-12-29T11:55:58.933Z,96309.41
2022-12-29T11:58:33.645Z,96310.47
2022-12-29T12:01:20.718Z,96303.88
2022-12-29T12:04:00.441Z,96307.19
2022-12-29T12:06:28.524Z,96301.41
2022-12-29T12:08:57.729Z,96297.78
2022-12-29T12:11:39.058Z,96297.69
2022-12-29T12:14:08.229Z,96303.28
2022-12-29T12:16:36.573Z,96303.97
2022-12-29T12:19:07.319Z,96299.38
2022-12-29T12:21:46.287Z,96291.00
2022-12-29T12:24:22.776Z,96293.56
2022-12-29T12:27:08.142Z,96291.84
2022-12-29T12:29:55.690Z,96282.56
2022-12-29T12:32:44.056Z,96288.91
2022-12-29T12:35:21.525Z,96282.72
2022-12-29T12:38:12.180Z,96285.47
2022-12-29T12:40:41.310Z,96283.72
2022-12-29T12:43:11.786Z,96280.28
2022-12-29T12:45:49.292Z,96277.59
2022-12-29T12:48:25.030Z,96283.41
2022-12-29T12:51:09.370Z,96287.22
2022-12-29T12:53:42.295Z,96287.97
2022-12-29T12:56:11.768Z,96289.59
2022-12-29T12:58:41.139Z,96292.78
2022-12-29T13:01:42.899Z,96284.59
2022-12-29T13:04:14.144Z,96298.00
2022-12-29T13:06:59.211Z,96303.66
2022-12-29T13:09:41.986Z,96297.50
2022-12-29T13:12:18.479Z,96305.38
2022-12-29T13:15:08.954Z,96290.19
2022-12-29T13:17:58.424Z,96288.72
2022-12-29T13:20:40.489Z,96286.41
2022-12-29T13:23:27.149Z,96289.09
2022-12-29T13:26:12.322Z,96274.31
2022-12-29T13:28:40.792Z,96283.09
2022-12-29T13:31:26.984Z,96267.31
2022-12-29T13:34:12.514Z,96277.91
2022-12-29T13:36:47.388Z,96274.53
2022-12-29T13:39:26.048Z,96280.69
2022-12-29T13:41:57.016Z,96285.72
2022-12-29T13:44:33.276Z,96281.41
2022-12-29T13:47:14.651Z,96286.84
2022-12-29T13:49:41.243Z,96291.59
2022-12-29T13:52:15.908Z,96288.59
2022-12-29T13:55:15.416Z,96290.59
2022-12-29T13:58:16.084Z,96295.19
2022-12-29T14:00:49.435Z,96304.38
2022-12-29T14:03:30.931Z,96303.19
2022-12-29T14:06:30.726Z,96298.53
2022-12-29T14:09:19.820Z,96299.09
2022-12-29T14:11:47.315Z,96309.19
2022-12-29T14:14:22.115Z,96316.13
2022-12-29T14:16:55.129Z,96301.63
2022-12-29T14:19:30.534Z,96308.09
2022-12-29T14:22:06.241Z,96312.25
2022-12-29T14:24:41.435Z,96313.53
2022-12-29T14:27:10.807Z,96315.22
2022-12-29T14:29:46.496Z,96320.34
2022-12-29T14:32:22.227Z,96321.09
2022-12-29T14:34:52.403Z,96325.38
2022-12-29T14:37:56.533Z,96328.56
2022-12-29T14:40:27.914Z,96331.03
2022-12-29T14:43:17.193Z,96335.63
2022-12-29T14:46:03.730Z,96327.19
2022-12-29T14:48:32.869Z,96330.47
2022-12-29T14:50:59.534Z,96334.72
2022-12-29T14:53:58.015Z,96329.41
2022-12-29T14:56:29.571Z,96333.94
2022-12-29T14:59:13.152Z,96337.19
2022-12-29T15:01:43.698Z,96332.31
2022-12-29T15:04:23.178Z,96336.84
2022-12-29T15:06:57.718Z,96335.38
2022-12-29T15:09:39.760Z,96325.00
2022-12-29T15:12:25.185Z,96328.97
2022-12-29T15:14:53.236Z,96329.78
2022-12-29T15:17:37.863Z,96334.75
2022-12-29T15:20:30.047Z,96343.63
2022-12-29T15:23:11.846Z,96348.06
2022-12-29T15:25:50.608Z,96354.31
2022-12-29T15:28:21.257Z,96353.97
2022-12-29T15:31:04.701Z,96348.78
2022-12-29T15:33:40.299Z,96359.53
2022-12-29T15:36:29.191Z,96361.81
2022-12-29T15:39:06.421Z,96365.44
2022-12-29T15:41:59.808Z,96360.19
2022-12-29T15:51:36.710Z,96374.22
2022-12-29T15:54:03.307Z,96366.44
2022-12-29T15:56:30.976Z,96372.94
2022-12-29T15:59:08.493Z,96362.25
2022-12-29T16:01:37.147Z,96367.56
2022-12-29T16:04:10.915Z,96366.41
2022-12-29T16:06:38.503Z,96365.13
2022-12-29T16:09:06.547Z,96363.75
2022-12-29T16:11:37.972Z,96356.81
2022-12-29T16:14:36.445Z,96352.84
2022-12-29T16:17:16.836Z,96345.94
2022-12-29T16:23:29.229Z,96346.94
2022-12-29T16:29:47.493Z,96354.19
2022-12-29T16:32:27.425Z,96354.09
2022-12-29T16:35:14.068Z,96351.38
2022-12-29T16:38:07.960Z,96354.16
2022-12-29T16:40:37.396Z,96355.03
2022-12-29T16:43:05.351Z,96363.06
2022-12-29T16:45:54.507Z,96372.44
2022-12-29T16:48:43.679Z,96370.53
2022-12-29T16:55:05.754Z,96374.38
2022-12-29T16:57:34.918Z,96373.78
2022-12-29T17:03:23.987Z,96373.41
2022-12-29T17:05:55.569Z,96374.41
2022-12-29T17:12:12.684Z,96384.88
2022-12-29T17:15:18.101Z,96384.59
2022-12-29T17:17:48.558Z,96389.00
2022-12-29T17:20:22.368Z,96388.31
2022-12-29T17:22:49.096Z,96377.84
2022-12-29T17:25:16.829Z,96383.06
2022-12-29T17:27:46.231Z,96389.34
2022-12-29T17:30:32.903Z,96390.13
2022-12-29T17:33:05.692Z,96388.81
2022-12-29T17:35:32.046Z,96387.63
2022-12-29T17:38:35.549Z,96388.09
2022-12-29T17:41:15.232Z,96389.09
2022-12-29T17:43:43.676Z,96398.44
2022-12-29T17:46:15.229Z,96399.09
2022-12-29T17:48:54.044Z,96393.50
2022-12-29T17:51:28.855Z,96396.00
2022-12-29T17:53:55.255Z,96391.47
2022-12-29T17:56:36.783Z,96392.75
2022-12-29T17:59:12.575Z,96397.31
2022-12-29T18:01:55.559Z,96389.66
2022-12-29T18:04:23.013Z,96392.75
2022-12-29T18:06:50.434Z,96388.31
2022-12-29T18:09:18.376Z,96393.59
2022-12-29T18:11:45.256Z,96396.41
2022-12-29T18:14:15.420Z,96398.56
2022-12-29T18:16:42.272Z,96399.34
2022-12-29T18:19:24.897Z,96402.41
2022-12-29T18:22:00.418Z,96411.28
2022-12-29T18:24:28.439Z,96422.75
2022-12-29T18:26:54.843Z,96433.41
2022-12-29T18:29:21.275Z,96440.16
2022-12-29T18:31:49.713Z,96457.81
2022-12-29T18:34:16.126Z,96465.38
2022-12-29T18:36:42.486Z,96475.97
2022-12-29T18:39:12.036Z,96478.59
2022-12-29T18:41:38.470Z,96457.66
2022-12-29T18:44:08.862Z,96452.25
2022-12-29T18:46:37.431Z,96455.50
2022-12-29T18:49:09.978Z,96449.16
2022-12-29T18:51:36.453Z,96439.78
2022-12-29T18:54:22.440Z,96436.09
2022-12-29T18:56:54.133Z,96447.56
2022-12-29T18:59:25.136Z,96446.72
2022-12-29T19:01:53.134Z,96448.00
2022-12-29T19:04:25.447Z,96447.88
2022-12-29T19:06:51.897Z,96447.03
2022-12-29T19:09:33.756Z,96446.09
2022-12-29T19:12:01.090Z,96450.81
2022-12-29T19:14:36.729Z,96460.00
2022-12-29T19:17:03.084Z,96455.75
2022-12-29T19:19:29.480Z,96468.34
2022-12-29T19:22:06.068Z,96470.81
2022-12-29T19:24:32.720Z,96479.97
2022-12-29T19:26:59.140Z,96475.88
2022-12-29T19:29:33.552Z,96475.06
2022-12-29T19:32:28.888Z,96466.25
2022-12-29T19:34:55.288Z,96475.88
2022-12-29T19:37:22.152Z,96474.09
2022-12-29T19:39:48.486Z,96475.09
2022-12-29T19:42:14.810Z,96475.56
2022-12-29T19:44:45.637Z,96471.16
2022-12-29T19:47:31.848Z,96478.19
2022-12-29T19:49:58.567Z,96476.88
2022-12-29T19:52:42.157Z,96472.63
2022-12-29T19:55:18.774Z,96472.94
2022-12-29T19:57:55.878Z,96473.13
2022-12-29T20:03:52.729Z,96458.41
2022-12-29T20:06:19.621Z,96464.81
2022-12-29T20:08:46.254Z,96472.47
2022-12-29T20:11:21.738Z,96457.75
2022-12-29T20:14:14.841Z,96461.69
2022-12-29T20:17:02.385Z,96464.81
2022-12-29T20:19:27.461Z,96464.97
2022-12-29T20:21:53.799Z,96468.53
2022-12-29T20:24:20.163Z,96465.94
2022-12-29T20:27:06.772Z,96467.06
2022-12-29T20:29:40.150Z,96468.03
2022-12-29T20:32:09.822Z,96470.81
2022-12-29T20:34:40.029Z,96464.13
2022-12-29T20:37:30.081Z,96465.75
2022-12-29T20:39:56.479Z,96469.03
2022-12-29T20:42:22.816Z,96468.53
2022-12-29T20:44:50.912Z,96471.47
2022-12-29T20:47:17.280Z,96472.16
2022-12-29T20:49:53.838Z,96472.97
2022-12-29T20:52:20.176Z,96473.28
2022-12-29T20:54:46.475Z,96483.91
2022-12-29T20:57:20.082Z,96474.91
2022-12-29T20:59:53.545Z,96482.59
2022-12-29T21:02:24.265Z,96475.72
2022-12-29T21:05:22.705Z,96474.75
2022-12-29T21:07:37.187Z,96477.22
2022-12-29T21:10:03.639Z,96472.47
2022-12-29T21:12:30.070Z,96471.50
2022-12-29T21:14:56.458Z,96473.13
2022-12-29T21:17:22.826Z,96461.50
2022-12-29T21:19:49.345Z,96467.88
2022-12-29T21:22:18.805Z,96477.03
2022-12-29T21:24:45.287Z,96483.25
2022-12-29T21:27:11.635Z,96475.41
2022-12-29T21:29:38.094Z,96470.66
2022-12-29T21:32:06.629Z,96476.38
2022-12-29T21:34:34.898Z,96463.78
2022-12-29T21:37:01.623Z,96460.03
2022-12-29T21:39:27.978Z,96468.22
2022-12-29T21:41:59.951Z,96455.81
2022-12-29T21:44:45.431Z,96464.78
2022-12-29T21:47:11.795Z,96463.78
2022-12-29T21:49:38.241Z,96473.09
2022-12-29T21:52:04.719Z,96490.09
2022-12-29T21:54:50.055Z,96486.00
2022-12-29T21:57:35.979Z,96502.97
2022-12-29T22:00:21.332Z,96503.47
2022-12-29T22:03:06.491Z,96504.00
2022-12-29T22:05:51.862Z,96510.69
2022-12-29T22:08:36.920Z,96518.31
2022-12-29T22:11:25.008Z,96521.44
2022-12-29T22:13:55.723Z,96535.44
2022-12-29T22:16:26.263Z,96536.75
2022-12-29T22:18:55.207Z,96526.00
2022-12-29T22:21:21.588Z,96528.00
2022-12-29T22:23:47.940Z,96521.97
2022-12-29T22:26:14.906Z,96531.25
2022-12-29T22:28:42.291Z,96533.88
2022-12-29T22:31:30.494Z,96537.59
2022-12-29T22:34:01.079Z,96536.16
2022-12-29T22:36:27.891Z,96529.31
2022-12-29T22:38:54.316Z,96523.88
2022-12-29T22:41:23.029Z,96533.63
2022-12-29T22:43:49.624Z,96538.25
2022-12-29T22:46:16.150Z,96535.16
2022-12-29T22:48:42.687Z,96540.88
2022-12-29T22:51:10.091Z,96537.97
2022-12-29T22:53:37.479Z,96532.16
2022-12-29T22:56:05.468Z,96536.88
2022-12-29T22:58:32.941Z,96539.00
2022-12-29T23:00:59.395Z,96518.78
2022-12-29T23:03:37.161Z,96532.84
2022-12-29T23:06:04.339Z,96522.06
2022-12-29T23:08:32.939Z,96524.31
2022-12-29T23:10:59.348Z,96519.44
2022-12-29T23:13:25.700Z,96530.00
2022-12-29T23:15:52.167Z,96535.03
2022-12-29T23:18:18.522Z,96545.63
2022-12-29T23:20:44.980Z,96541.50
2022-12-29T23:23:11.455Z,96530.34
2022-12-29T23:25:38.001Z,96534.34
2022-12-29T23:28:04.943Z,96527.97
2022-12-29T23:30:31.344Z,96547.13
2022-12-29T23:32:57.886Z,96544.84
2022-12-29T23:35:24.449Z,96555.41
2022-12-29T23:37:55.865Z,96557.75
2022-12-29T23:40:22.292Z,96566.69
2022-12-29T23:42:48.780Z,96563.53
2022-12-29T23:45:15.200Z,96564.06
2022-12-29T23:47:41.597Z,96558.91
2022-12-29T23:50:08.725Z,96564.31
2022-12-29T23:52:36.319Z,96571.34
2022-12-29T23:55:02.740Z,96568.78
2022-12-29T23:57:29.079Z,96577.59
2022-12-29T23:59:55.467Z,96571.28
